Time;durP1;ratioP1;P1;durP2;ratioP2;P2;SDS_P1;SDS_P2;PMS_P1;PMS_P2;Temp;Humidity;BMP_temperature;BMP_pressure;BME280_temperature;BME280_humidity;BME280_pressure;Samples;Min_cycle;Max_cycle;Signal;HPM_P1;HPM_P2
2023/07/14 00:02:00;;;;;;;2.50;0.90;;;;;;;34.15;24.78;101071.31;5008170;28;20049;-77
2023/07/14 00:04:31;;;;;;;1.40;0.90;;;;;;;34.08;25.14;101072.66;5008004;28;20058;-77
2023/07/14 00:07:00;;;;;;;2.30;1.00;;;;;;;34.00;24.73;101065.09;5001650;28;20126;-74
2023/07/14 00:09:30;;;;;;;1.38;0.95;;;;;;;34.09;25.32;101074.41;5005157;28;20136;-74
2023/07/14 00:11:59;;;;;;;1.00;0.75;;;;;;;34.13;25.64;101065.19;5004324;28;20496;-73
2023/07/14 00:14:28;;;;;;;1.20;0.95;;;;;;;34.18;25.50;101063.09;5008045;28;20050;-73
2023/07/14 00:16:57;;;;;;;1.10;0.85;;;;;;;34.21;25.54;101062.88;4997826;28;20057;-77
2023/07/14 00:19:28;;;;;;;2.88;1.25;;;;;;;34.28;23.89;101063.34;4997514;28;20459;-74
2023/07/14 00:21:57;;;;;;;2.35;1.10;;;;;;;34.24;25.42;101061.81;5004589;28;20532;-74
2023/07/14 00:24:26;;;;;;;1.33;0.90;;;;;;;34.16;25.33;101059.63;4995386;28;20047;-76
2023/07/14 00:26:57;;;;;;;4.97;0.90;;;;;;;34.10;25.34;101058.19;4996588;28;20107;-77
2023/07/14 00:29:36;;;;;;;1.00;0.80;;;;;;;33.81;24.96;101049.28;5009724;28;20046;-75
2023/07/14 00:32:14;;;;;;;1.30;0.80;;;;;;;33.68;25.58;101048.38;5006659;28;20046;-74
2023/07/14 00:34:44;;;;;;;2.17;1.05;;;;;;;33.68;25.71;101054.59;4997896;28;20053;-75
2023/07/14 00:37:14;;;;;;;1.80;1.00;;;;;;;33.71;26.48;101050.84;5003299;28;20054;-74
2023/07/14 00:39:43;;;;;;;3.67;0.98;;;;;;;33.73;25.69;101054.28;5007317;28;20057;-76
2023/07/14 00:42:14;;;;;;;2.08;1.20;;;;;;;33.70;25.68;101050.00;4993506;28;20061;-73
2023/07/14 00:44:43;;;;;;;1.60;1.05;;;;;;;33.62;25.90;101044.22;4997645;28;20049;-72
2023/07/14 00:47:21;;;;;;;2.10;1.00;;;;;;;33.59;26.30;101050.66;5006266;28;20056;-73
2023/07/14 00:49:52;;;;;;;2.40;1.00;;;;;;;33.51;26.07;101046.69;5000497;28;20128;-75
2023/07/14 00:52:26;;;;;;;1.40;1.00;;;;;;;33.51;25.93;101036.84;5001190;28;20084;-74
2023/07/14 00:54:55;;;;;;;3.15;1.08;;;;;;;33.55;26.01;101038.34;4996686;28;20037;-75
2023/07/14 00:57:28;;;;;;;1.02;0.93;;;;;;;33.49;26.09;101040.56;5007413;28;20054;-73
2023/07/14 01:00:18;;;;;;;1.70;0.90;;;;;;;33.43;25.82;101028.41;5011957;28;20049;-74
2023/07/14 01:02:47;;;;;;;1.25;0.90;;;;;;;33.41;26.57;101037.50;5022083;28;20124;-73
2023/07/14 01:05:17;;;;;;;1.65;0.80;;;;;;;33.41;26.63;101026.78;5014785;28;20049;-73
2023/07/14 01:07:51;;;;;;;2.80;1.08;;;;;;;33.40;24.96;101033.97;5006653;28;20079;-73
2023/07/14 01:10:23;;;;;;;1.73;1.10;;;;;;;33.34;26.15;101026.28;5011370;28;20046;-74
2023/07/14 01:12:57;;;;;;;1.30;1.00;;;;;;;33.37;26.97;101028.78;5007222;28;20042;-73
2023/07/14 01:15:28;;;;;;;1.90;0.90;;;;;;;33.42;26.21;101029.34;5007371;28;20057;-73
2023/07/14 01:17:57;;;;;;;1.13;1.00;;;;;;;33.40;26.53;101020.56;5004359;28;20112;-73
2023/07/14 01:20:28;;;;;;;1.02;0.80;;;;;;;33.34;26.50;101018.25;5009955;28;20129;-73
2023/07/14 01:23:08;;;;;;;2.88;1.00;;;;;;;33.31;27.04;101023.81;5011141;28;20125;-73
2023/07/14 01:25:51;;;;;;;1.10;1.00;;;;;;;33.29;26.48;101021.22;5012831;28;20049;-74
2023/07/14 01:28:22;;;;;;;1.48;0.90;;;;;;;33.29;26.76;101021.22;5004135;28;20503;-73
2023/07/14 01:30:51;;;;;;;4.10;1.00;;;;;;;33.23;27.00;101018.91;5005043;28;20225;-76
2023/07/14 01:33:20;;;;;;;1.30;0.98;;;;;;;33.17;27.00;101014.78;5005279;28;20053;-74
2023/07/14 01:35:53;;;;;;;4.10;1.00;;;;;;;33.16;27.38;101015.72;5014987;28;20050;-75
2023/07/14 01:38:23;;;;;;;2.83;1.00;;;;;;;33.14;28.13;101020.31;5018314;28;20060;-74
2023/07/14 01:40:53;;;;;;;1.20;1.00;;;;;;;33.08;27.35;101018.03;5024698;28;20041;-73
2023/07/14 01:43:24;;;;;;;2.28;1.00;;;;;;;33.02;28.18;101023.72;5017426;28;20030;-74
2023/07/14 01:45:57;;;;;;;1.83;0.97;;;;;;;32.95;27.21;101023.22;5024383;28;20242;-74
2023/07/14 01:48:28;;;;;;;1.05;0.95;;;;;;;32.84;26.67;101014.13;5026355;28;20088;-73
2023/07/14 01:50:58;;;;;;;;;;;;;;;32.75;26.86;101008.34;5014579;28;20046;-72
2023/07/14 01:53:31;;;;;;;1.20;0.90;;;;;;;32.68;27.69;101008.81;5009754;28;19932;-74
2023/07/14 01:56:04;;;;;;;1.70;0.95;;;;;;;32.65;28.50;101009.00;5011916;28;20065;-75
2023/07/14 01:58:47;;;;;;;1.63;1.20;;;;;;;32.58;27.99;101013.84;5011255;28;20054;-75
2023/07/14 02:01:15;;;;;;;4.63;0.90;;;;;;;32.58;28.57;101010.31;5002274;28;20054;-71
2023/07/14 02:03:50;;;;;;;1.45;1.20;;;;;;;32.49;28.00;101014.34;5009292;28;20088;-73
2023/07/14 02:06:18;;;;;;;2.00;1.00;;;;;;;32.46;28.73;101014.50;5005902;28;20810;-74
2023/07/14 02:08:47;;;;;;;1.75;0.90;;;;;;;32.43;28.71;101014.69;5009227;28;20042;-75
2023/07/14 02:11:18;;;;;;;3.25;1.02;;;;;;;32.39;28.23;101010.47;5008624;28;20121;-74
2023/07/14 02:13:51;;;;;;;1.85;0.98;;;;;;;32.35;29.09;101012.47;5010692;28;20054;-75
2023/07/14 02:16:20;;;;;;;1.30;1.20;;;;;;;32.22;28.75;101012.31;5011384;28;20042;-75
2023/07/14 02:18:50;;;;;;;1.05;0.85;;;;;;;32.13;29.32;101016.38;5005753;28;20576;-74
2023/07/14 02:21:25;;;;;;;1.25;1.02;;;;;;;32.06;28.91;101015.00;5007757;28;20525;-74
2023/07/14 02:23:54;;;;;;;2.22;0.98;;;;;;;32.01;28.47;101011.72;4998936;28;20436;-74
2023/07/14 02:26:30;;;;;;;2.22;0.90;;;;;;;31.97;29.76;101010.16;4999019;28;20046;-74
2023/07/14 02:29:00;;;;;;;2.75;0.88;;;;;;;31.94;29.71;101019.19;5005182;28;20570;-73
2023/07/14 02:31:34;;;;;;;4.03;1.05;;;;;;;31.91;29.48;101014.03;5007469;28;20046;-73
2023/07/14 02:34:03;;;;;;;1.88;0.93;;;;;;;31.83;29.32;101010.91;5006471;28;20053;-75
2023/07/14 02:36:42;;;;;;;1.98;1.13;;;;;;;31.80;29.69;101016.44;4999405;28;20057;-74
2023/07/14 02:39:11;;;;;;;1.98;0.88;;;;;;;31.77;31.04;101026.44;5008729;28;20112;-72
2023/07/14 02:41:44;;;;;;;3.50;1.00;;;;;;;31.71;31.21;101027.66;5003088;28;20050;-73
2023/07/14 02:44:19;;;;;;;1.83;1.10;;;;;;;31.66;31.26;101024.38;5001854;28;20053;-73
2023/07/14 02:46:51;;;;;;;1.75;1.02;;;;;;;31.62;30.42;101017.44;4995047;28;20167;-73
2023/07/14 02:49:20;;;;;;;1.50;0.95;;;;;;;31.57;30.93;101020.38;5002375;28;20058;-73
2023/07/14 02:51:48;;;;;;;1.40;0.93;;;;;;;31.49;30.40;101015.41;5006589;28;20096;-72
2023/07/14 02:54:17;;;;;;;1.52;1.05;;;;;;;31.38;30.96;101019.59;5009496;28;20112;-71
2023/07/14 02:56:46;;;;;;;1.70;1.00;;;;;;;31.31;31.62;101022.63;5000584;28;20046;-73
2023/07/14 02:59:18;;;;;;;1.23;0.95;;;;;;;31.25;31.81;101019.41;5005474;28;20045;-72
2023/07/14 03:01:47;;;;;;;2.90;1.05;;;;;;;31.14;30.46;101011.09;5004943;28;20076;-76
2023/07/14 03:04:16;;;;;;;2.70;1.05;;;;;;;31.05;30.99;101017.75;5009136;28;20046;-74
2023/07/14 03:06:44;;;;;;;1.23;0.85;;;;;;;30.97;30.49;101025.31;5006698;28;20046;-74
2023/07/14 03:09:13;;;;;;;3.53;0.90;;;;;;;30.86;30.76;101018.72;5003406;28;20551;-73
2023/07/14 03:11:42;;;;;;;4.43;1.33;;;;;;;30.79;30.69;101021.75;5003335;28;20054;-75
2023/07/14 03:14:20;;;;;;;1.67;0.80;;;;;;;30.67;30.72;101021.44;5003442;28;20140;-74
2023/07/14 03:16:55;;;;;;;1.05;0.70;;;;;;;30.57;31.23;101017.47;5000576;28;20050;-73
2023/07/14 03:19:25;;;;;;;2.83;0.95;;;;;;;30.46;30.61;101022.50;4999696;28;20737;-73
2023/07/14 03:21:53;;;;;;;2.25;0.90;;;;;;;30.37;30.95;101026.47;5004650;28;20042;-73
2023/07/14 03:24:22;;;;;;;2.05;0.60;;;;;;;30.29;31.42;101026.00;5006490;28;20058;-74
2023/07/14 03:26:51;;;;;;;3.90;0.90;;;;;;;30.21;31.23;101028.13;4998149;28;20081;-74
2023/07/14 03:29:21;;;;;;;1.45;0.73;;;;;;;30.15;31.60;101026.63;5005155;28;20046;-74
2023/07/14 03:31:50;;;;;;;1.98;0.70;;;;;;;30.06;31.33;101027.06;5005963;28;20049;-73
2023/07/14 03:34:18;;;;;;;3.17;1.02;;;;;;;29.99;31.44;101038.97;5003281;28;20057;-74
2023/07/14 03:36:47;;;;;;;3.90;0.80;;;;;;;29.90;32.05;101029.59;4999304;28;20519;-74
2023/07/14 03:39:26;;;;;;;2.05;0.90;;;;;;;29.80;31.78;101034.50;5002533;28;20208;-74
2023/07/14 03:41:55;;;;;;;1.83;0.90;;;;;;;29.72;31.74;101035.78;5004786;28;20554;-74
2023/07/14 03:44:26;;;;;;;1.25;0.88;;;;;;;29.63;31.95;101042.38;5006798;28;20057;-73
2023/07/14 03:46:55;;;;;;;0.93;0.75;;;;;;;29.52;32.29;101042.00;5007482;28;20553;-75
2023/07/14 03:49:24;;;;;;;1.35;0.80;;;;;;;29.38;32.16;101035.47;5002216;28;20050;-73
2023/07/14 03:51:54;;;;;;;1.58;0.98;;;;;;;29.28;32.07;101044.84;5008786;28;20046;-76
2023/07/14 03:54:23;;;;;;;1.95;0.80;;;;;;;29.18;32.62;101048.81;5006559;28;20645;-73
2023/07/14 03:56:52;;;;;;;2.75;0.63;;;;;;;29.07;32.00;101045.72;5006945;28;20046;-74
2023/07/14 03:59:21;;;;;;;2.83;1.00;;;;;;;28.94;32.89;101045.41;5007037;28;20079;-73
2023/07/14 04:01:51;;;;;;;0.98;0.70;;;;;;;28.90;35.12;101057.09;5005561;28;20124;-73
2023/07/14 04:04:21;;;;;;;1.42;0.70;;;;;;;28.80;34.27;101061.97;5003249;28;20084;-76
2023/07/14 04:06:49;;;;;;;2.55;0.90;;;;;;;28.67;33.61;101052.75;5001676;28;20050;-74
2023/07/14 04:09:18;;;;;;;2.00;0.90;;;;;;;28.59;34.51;101066.38;5006585;28;20041;-76
2023/07/14 04:11:47;;;;;;;1.80;0.80;;;;;;;28.48;34.31;101053.50;5007665;28;20057;-74
2023/07/14 04:14:16;;;;;;;0.93;0.57;;;;;;;28.38;33.83;101060.06;5005383;28;20054;-76
2023/07/14 04:16:44;;;;;;;1.83;0.70;;;;;;;28.27;33.61;101059.66;5008431;28;20041;-75
2023/07/14 04:19:15;;;;;;;3.10;0.82;;;;;;;28.17;33.92;101064.44;5003403;28;20054;-74
2023/07/14 04:21:43;;;;;;;2.22;0.80;;;;;;;28.06;34.07;101072.88;5009514;28;20053;-74
2023/07/14 04:24:12;;;;;;;4.50;0.85;;;;;;;27.98;34.41;101073.13;5004747;28;20523;-73
2023/07/14 04:26:40;;;;;;;1.65;0.93;;;;;;;27.91;35.40;101073.44;5005381;28;20080;-74
2023/07/14 04:29:11;;;;;;;3.60;0.80;;;;;;;27.84;34.23;101071.94;5009779;28;20055;-73
2023/07/14 04:31:40;;;;;;;3.42;0.80;;;;;;;27.73;33.82;101077.63;5003823;28;20577;-73
2023/07/14 04:34:09;;;;;;;1.30;0.68;;;;;;;27.62;33.82;101078.00;5003677;28;20130;-73
2023/07/14 04:36:40;;;;;;;1.27;0.73;;;;;;;27.56;34.80;101091.53;5007796;28;20102;-72
2023/07/14 04:39:10;;;;;;;1.38;0.70;;;;;;;27.48;34.39;101088.25;5005243;28;20049;-71
2023/07/14 04:41:39;;;;;;;1.38;0.70;;;;;;;27.40;34.76;101088.56;5008605;28;20699;-72
2023/07/14 04:44:12;;;;;;;1.20;0.80;;;;;;;27.33;34.61;101103.84;5007826;28;20050;-72
2023/07/14 04:46:42;;;;;;;1.13;0.77;;;;;;;27.26;34.69;101102.31;5004631;28;20047;-71
2023/07/14 04:49:10;;;;;;;1.27;0.80;;;;;;;27.18;34.53;101093.69;5008440;28;20522;-71
2023/07/14 04:51:41;;;;;;;2.20;0.70;;;;;;;27.10;34.75;101103.72;5011173;28;20045;-72
2023/07/14 04:54:10;;;;;;;1.60;0.50;;;;;;;27.04;35.60;101110.09;5006969;28;20065;-70
2023/07/14 04:56:43;;;;;;;1.17;0.80;;;;;;;26.96;35.62;101104.16;4999469;28;20257;-72
2023/07/14 04:59:12;;;;;;;1.65;1.00;;;;;;;26.91;35.67;101111.41;5003530;28;20097;-73
2023/07/14 05:01:41;;;;;;;0.98;0.85;;;;;;;26.85;36.34;101112.50;5004028;28;20085;-77
2023/07/14 05:04:10;;;;;;;2.45;0.70;;;;;;;26.79;36.30;101111.84;5000412;28;20717;-75
2023/07/14 05:06:41;;;;;;;1.13;0.70;;;;;;;26.73;37.00;101115.53;5002284;28;20105;-74
2023/07/14 05:09:11;;;;;;;1.05;0.90;;;;;;;26.66;37.34;101119.31;5006991;28;20085;-73
2023/07/14 05:11:40;;;;;;;2.40;0.77;;;;;;;26.59;38.18;101126.59;5009202;28;20073;-75
2023/07/14 05:14:09;;;;;;;1.13;0.73;;;;;;;26.53;37.59;101127.63;4998225;28;20058;-74
2023/07/14 05:16:37;;;;;;;1.40;0.80;;;;;;;26.48;37.23;101123.38;5006038;28;20070;-74
2023/07/14 05:19:06;;;;;;;1.00;0.70;;;;;;;26.43;37.52;101133.25;5003568;28;20458;-75
2023/07/14 05:21:34;;;;;;;1.58;0.70;;;;;;;26.38;37.55;101130.75;5006844;28;20092;-77
2023/07/14 05:24:05;;;;;;;2.58;0.98;;;;;;;26.32;37.12;101138.91;5001632;28;20052;-74
2023/07/14 05:26:34;;;;;;;2.17;1.00;;;;;;;26.25;37.87;101137.34;5007924;28;20281;-76
2023/07/14 05:29:03;;;;;;;1.50;1.10;;;;;;;26.20;37.90;101133.94;5005047;28;20050;-79
2023/07/14 05:31:32;;;;;;;1.58;1.10;;;;;;;26.11;37.98;101133.31;5003057;28;20137;-75
2023/07/14 05:34:01;;;;;;;1.60;1.00;;;;;;;26.05;38.31;101133.50;5006949;28;20071;-77
2023/07/14 05:36:29;;;;;;;1.35;1.08;;;;;;;26.01;38.22;101145.09;5006424;28;20057;-74
2023/07/14 05:38:58;;;;;;;2.22;1.52;;;;;;;25.95;37.92;101132.00;5010481;28;20112;-80
2023/07/14 05:41:28;;;;;;;1.92;1.55;;;;;;;25.91;37.70;101138.34;5013706;28;20543;-75
2023/07/14 05:43:56;;;;;;;1.60;1.08;;;;;;;25.87;38.64;101141.97;5008053;28;20054;-79
2023/07/14 05:46:25;;;;;;;2.03;1.38;;;;;;;25.80;38.74;101143.03;5017106;28;20092;-76
2023/07/14 05:48:53;;;;;;;2.08;1.63;;;;;;;25.73;38.40;101154.72;5002054;28;20108;-76
2023/07/14 05:51:22;;;;;;;3.50;1.90;;;;;;;25.62;38.51;101144.38;5010946;28;20057;-78
2023/07/14 05:53:51;;;;;;;4.78;2.00;;;;;;;25.56;38.28;101148.06;5007693;28;20141;-77
2023/07/14 05:56:20;;;;;;;3.03;1.95;;;;;;;25.53;39.07;101148.16;5005255;28;20064;-76
2023/07/14 05:58:50;;;;;;;2.83;2.13;;;;;;;25.48;38.92;101150.91;5002769;28;20053;-82
2023/07/14 06:01:19;;;;;;;3.20;2.90;;;;;;;25.44;38.74;101148.41;5012435;28;20100;-76
2023/07/14 06:03:47;;;;;;;3.33;2.80;;;;;;;25.39;39.09;101156.47;5018390;28;20494;-78
2023/07/14 06:06:16;;;;;;;3.22;2.38;;;;;;;25.34;39.40;101160.16;5009178;28;20053;-76
2023/07/14 06:08:45;;;;;;;4.25;3.05;;;;;;;25.23;38.77;101158.63;5012666;28;20534;-79
2023/07/14 06:11:15;;;;;;;2.97;2.40;;;;;;;25.13;39.46;101165.03;5006732;28;20050;-78
2023/07/14 06:13:46;;;;;;;3.95;3.28;;;;;;;25.07;39.98;101171.34;5008505;28;20062;-77
2023/07/14 06:16:16;;;;;;;3.70;2.88;;;;;;;25.00;39.33;101163.59;5010567;28;20046;-76
2023/07/14 06:18:44;;;;;;;3.95;3.33;;;;;;;24.91;39.10;101164.66;4999742;28;20058;-76
2023/07/14 06:21:13;;;;;;;3.90;3.50;;;;;;;24.90;39.45;101164.69;5010424;28;20081;-79
2023/07/14 06:23:44;;;;;;;4.20;3.47;;;;;;;24.87;38.09;101163.84;5005336;28;20080;-76
2023/07/14 06:26:13;;;;;;;3.90;3.50;;;;;;;24.88;38.58;101170.03;4996947;28;20050;-76
2023/07/14 06:28:42;;;;;;;4.22;3.47;;;;;;;24.82;39.20;101164.88;4999751;28;20129;-81
2023/07/14 06:31:14;;;;;;;3.40;3.03;;;;;;;24.74;38.29;101170.38;5008652;28;20050;-76
2023/07/14 06:33:44;;;;;;;3.83;3.28;;;;;;;24.72;38.54;101181.91;5003260;28;20583;-76
2023/07/14 06:36:13;;;;;;;3.53;2.85;;;;;;;24.66;38.00;101169.66;5006083;28;20096;-78
2023/07/14 06:38:41;;;;;;;4.20;3.33;;;;;;;24.62;39.54;101178.56;5003708;28;20504;-75
2023/07/14 06:41:11;;;;;;;3.38;2.92;;;;;;;24.55;41.10;101177.81;5003709;28;20052;-76
2023/07/14 06:43:39;;;;;;;5.00;3.22;;;;;;;24.49;39.03;101174.44;5007205;28;20192;-74
2023/07/14 06:46:09;;;;;;;3.95;3.30;;;;;;;24.44;39.52;101175.41;5008959;28;20046;-74
2023/07/14 06:48:37;;;;;;;4.00;3.08;;;;;;;24.43;39.54;101178.06;5000777;28;20050;-75
2023/07/14 06:51:07;;;;;;;3.63;3.03;;;;;;;24.41;38.29;101180.72;5008177;28;20062;-75
2023/07/14 06:53:36;;;;;;;4.47;3.65;;;;;;;24.38;39.20;101175.50;5014556;28;20442;-75
2023/07/14 06:56:07;;;;;;;4.10;3.08;;;;;;;24.32;40.46;101175.63;5003728;28;20582;-75
2023/07/14 06:58:36;;;;;;;3.42;3.13;;;;;;;24.23;39.75;101183.75;5003077;28;20176;-75
2023/07/14 07:01:04;;;;;;;4.50;3.47;;;;;;;24.15;40.22;101178.63;5004820;28;20124;-77
2023/07/14 07:03:34;;;;;;;3.72;3.40;;;;;;;24.06;39.56;101178.81;5001459;28;20065;-76
2023/07/14 07:06:03;;;;;;;4.03;3.60;;;;;;;24.02;40.23;101175.34;5008671;28;20491;-76
2023/07/14 07:08:34;;;;;;;4.38;2.88;;;;;;;23.97;38.45;101171.94;5008067;28;20527;-76
2023/07/14 07:11:02;;;;;;;4.60;3.70;;;;;;;23.95;39.52;101179.03;5008566;28;20588;-76
2023/07/14 07:13:31;;;;;;;3.63;3.10;;;;;;;23.93;40.68;101183.47;5007286;28;20067;-76
2023/07/14 07:15:59;;;;;;;3.95;3.58;;;;;;;23.88;40.68;101180.03;5005707;28;20045;-77
2023/07/14 07:18:29;;;;;;;4.00;3.40;;;;;;;23.84;40.34;101170.41;5005983;28;20054;-76
2023/07/14 07:20:57;;;;;;;4.95;3.80;;;;;;;23.81;40.09;101170.50;5004724;28;20050;-79
2023/07/14 07:23:26;;;;;;;6.05;3.80;;;;;;;23.79;40.33;101174.94;5027140;28;20033;-77
2023/07/14 07:25:57;;;;;;;3.85;3.45;;;;;;;23.76;39.86;101172.34;5022737;28;20092;-76
2023/07/14 07:28:26;;;;;;;3.25;2.78;;;;;;;23.73;40.88;101185.56;5011894;28;20048;-74
2023/07/14 07:30:57;;;;;;;4.35;3.78;;;;;;;23.67;40.81;101186.56;5003821;28;20698;-75
2023/07/14 07:33:25;;;;;;;4.32;3.58;;;;;;;23.59;41.35;101191.09;5005049;28;20072;-78
2023/07/14 07:35:54;;;;;;;3.67;3.17;;;;;;;23.55;41.34;101192.06;5004703;28;20515;-74
2023/07/14 07:38:23;;;;;;;4.60;3.88;;;;;;;23.48;42.04;101193.94;5006134;28;20052;-76
2023/07/14 07:40:52;;;;;;;4.25;3.85;;;;;;;23.41;41.50;101189.66;5006732;28;20099;-75
2023/07/14 07:43:22;;;;;;;4.20;3.55;;;;;;;23.32;41.97;101184.50;5004567;28;20046;-77
2023/07/14 07:45:51;;;;;;;4.03;3.30;;;;;;;23.32;41.75;101195.06;5010359;28;20046;-76
2023/07/14 07:48:19;;;;;;;3.88;3.08;;;;;;;23.27;42.08;101197.78;4990471;28;20046;-76
2023/07/14 07:50:48;;;;;;;4.32;3.08;;;;;;;23.25;41.99;101198.72;4991790;28;20057;-76
2023/07/14 07:53:16;;;;;;;3.28;2.95;;;;;;;23.20;42.21;101199.69;5010504;28;20054;-75
2023/07/14 07:55:53;;;;;;;3.80;3.40;;;;;;;23.14;42.64;101202.41;5006826;28;20562;-75
2023/07/14 07:58:25;;;;;;;3.90;3.20;;;;;;;23.09;43.56;101198.97;4995668;28;20046;-75
2023/07/14 08:00:55;;;;;;;3.58;3.10;;;;;;;23.07;43.13;101200.75;5010030;28;20553;-73
2023/07/14 08:03:24;;;;;;;3.78;3.20;;;;;;;23.08;42.92;101202.50;5016307;28;20096;-75
2023/07/14 08:05:54;;;;;;;4.28;3.20;;;;;;;23.08;42.86;101194.56;5004575;28;20144;-75
2023/07/14 08:08:23;;;;;;;3.58;2.90;;;;;;;23.06;43.14;101195.50;5008992;28;20112;-74
2023/07/14 08:10:51;;;;;;;3.97;2.53;;;;;;;23.04;43.06;101189.38;5002875;28;20046;-75
2023/07/14 08:13:20;;;;;;;3.92;2.88;;;;;;;23.00;43.67;101199.97;5002476;28;20042;-74
2023/07/14 08:15:50;;;;;;;3.95;2.80;;;;;;;22.93;43.36;101198.28;4998662;28;20169;-76
2023/07/14 08:18:20;;;;;;;3.60;3.17;;;;;;;22.85;43.52;101194.03;5006946;28;20057;-75
2023/07/14 08:20:50;;;;;;;6.60;3.40;;;;;;;22.76;44.46;101197.66;5000479;28;20046;-75
2023/07/14 08:23:21;;;;;;;3.13;2.83;;;;;;;22.65;45.20;101192.50;4996374;28;20081;-75
2023/07/14 08:25:59;;;;;;;3.72;3.20;;;;;;;22.54;45.57;101197.94;5004865;28;20561;-75
2023/07/14 08:28:28;;;;;;;4.20;3.03;;;;;;;22.44;45.92;101200.72;5003135;28;20047;-75
2023/07/14 08:31:01;;;;;;;3.38;2.88;;;;;;;22.38;45.40;101204.31;4995550;28;20061;-79
2023/07/14 08:33:30;;;;;;;5.15;3.35;;;;;;;22.32;46.77;101207.88;4997810;28;20746;-75
2023/07/14 08:36:00;;;;;;;5.40;4.00;;;;;;;22.23;46.88;101200.09;5013555;28;20497;-75
2023/07/14 08:38:29;;;;;;;4.03;3.40;;;;;;;22.13;47.33;101209.84;5007986;28;20593;-76
2023/07/14 08:41:09;;;;;;;4.03;3.63;;;;;;;22.05;47.98;101205.53;5002205;28;20050;-74
2023/07/14 08:43:50;;;;;;;4.63;3.67;;;;;;;21.96;48.14;101209.13;5009021;28;20042;-76
2023/07/14 08:46:28;;;;;;;5.53;3.70;;;;;;;21.86;48.87;101215.41;5008114;28;20079;-76
2023/07/14 08:49:04;;;;;;;5.68;3.63;;;;;;;21.71;49.34;101216.41;5010529;28;20129;-75
2023/07/14 08:51:37;;;;;;;4.00;3.60;;;;;;;21.61;50.51;101227.91;5002993;28;20129;-75
2023/07/14 08:54:12;;;;;;;3.85;3.45;;;;;;;21.52;50.42;101226.22;5002477;28;20550;-75
2023/07/14 08:56:42;;;;;;;4.22;3.83;;;;;;;21.46;50.26;101221.91;5003404;28;20051;-75
2023/07/14 08:59:16;;;;;;;4.82;3.50;;;;;;;21.44;50.43;101222.78;5001529;28;20119;-76
2023/07/14 09:01:52;;;;;;;4.53;3.67;;;;;;;21.46;51.10;101221.91;4995848;28;20433;-75
2023/07/14 09:04:25;;;;;;;4.00;3.60;;;;;;;21.49;51.06;101221.00;5004449;28;20125;-75
2023/07/14 09:06:54;;;;;;;4.32;3.67;;;;;;;21.53;51.13;101227.97;5005736;28;20049;-75
2023/07/14 09:09:31;;;;;;;4.13;3.22;;;;;;;21.51;50.44;101224.50;5007226;28;20042;-76
2023/07/14 09:12:11;;;;;;;5.57;3.60;;;;;;;21.49;50.16;101227.13;5006061;28;20081;-77
2023/07/14 09:14:58;;;;;;;4.35;3.35;;;;;;;21.51;50.26;101230.63;5007617;28;20092;-76
2023/07/14 09:17:48;;;;;;;5.13;3.65;;;;;;;21.44;51.66;101226.31;5005140;28;20050;-76
2023/07/14 09:20:36;;;;;;;4.25;3.15;;;;;;;21.37;51.29;101232.44;5008762;28;20049;-76
2023/07/14 09:23:18;;;;;;;3.33;2.65;;;;;;;21.32;51.50;101243.00;5017567;28;20045;-75
2023/07/14 09:25:54;;;;;;;5.47;2.60;;;;;;;21.32;51.19;101242.13;5005803;28;20052;-75
2023/07/14 09:28:31;;;;;;;4.35;3.42;;;;;;;21.34;51.45;101238.59;5013182;28;20046;-75
2023/07/14 09:31:03;;;;;;;2.88;2.45;;;;;;;21.37;51.62;101242.09;5013329;28;20053;-75
2023/07/14 09:33:46;;;;;;;3.80;3.13;;;;;;;21.30;51.66;101229.00;5011742;28;20491;-76
2023/07/14 09:36:15;;;;;;;5.28;2.70;;;;;;;21.33;50.91;101247.41;4998741;28;20510;-77
2023/07/14 09:38:51;;;;;;;4.78;2.90;;;;;;;21.31;51.40;101245.66;5012717;28;20062;-76
2023/07/14 09:41:24;;;;;;;4.07;2.30;;;;;;;21.29;51.14;101247.44;5009177;28;20050;-76
2023/07/14 09:43:57;;;;;;;3.08;2.58;;;;;;;21.27;51.88;101243.94;5013601;28;20057;-76
2023/07/14 09:46:26;;;;;;;3.88;3.05;;;;;;;21.19;52.01;101249.25;5008616;28;20046;-77
2023/07/14 09:49:04;;;;;;;3.20;2.90;;;;;;;21.16;52.28;101238.72;5002878;28;20062;-76
2023/07/14 09:51:33;;;;;;;4.90;2.50;;;;;;;21.13;52.51;101244.03;5003920;28;20041;-77
2023/07/14 09:54:03;;;;;;;2.78;2.45;;;;;;;21.10;52.30;101254.59;5005257;28;20057;-77
2023/07/14 09:56:33;;;;;;;4.03;2.47;;;;;;;21.05;52.26;101246.72;5012192;28;20066;-77
2023/07/14 09:59:18;;;;;;;2.70;2.33;;;;;;;21.00;52.46;101251.09;5011911;28;20408;-77
2023/07/14 10:01:53;;;;;;;2.95;2.20;;;;;;;20.96;52.39;101257.28;5015391;28;20046;-79
2023/07/14 10:04:29;;;;;;;3.00;2.00;;;;;;;20.94;51.80;101256.41;5010836;28;20053;-76
2023/07/14 10:07:33;;;;;;;2.63;2.08;;;;;;;20.88;52.42;101259.06;5029640;28;20060;-76
2023/07/14 10:10:07;;;;;;;2.88;2.20;;;;;;;20.84;52.66;101262.59;5026172;28;20084;-76
2023/07/14 10:12:42;;;;;;;3.33;2.30;;;;;;;20.80;53.39;101253.88;5023490;28;20429;-77
2023/07/14 10:15:30;;;;;;;2.30;2.00;;;;;;;20.76;54.32;101251.25;5020311;28;20594;-78
2023/07/14 10:18:01;;;;;;;3.97;2.20;;;;;;;20.70;54.30;101253.00;5004699;28;20042;-76
2023/07/14 10:20:32;;;;;;;2.45;1.95;;;;;;;20.68;53.85;101257.44;5005852;28;20480;-75
2023/07/14 10:23:02;;;;;;;3.08;2.03;;;;;;;20.67;53.49;101260.91;5006633;28;20714;-78
2023/07/14 10:25:32;;;;;;;3.33;1.75;;;;;;;20.66;53.58;101259.19;5001279;28;20047;-78
2023/07/14 10:28:14;;;;;;;2.13;1.92;;;;;;;20.65;53.11;101267.94;5017614;28;20034;-76
2023/07/14 10:30:54;;;;;;;2.80;2.35;;;;;;;20.65;53.08;101267.94;5004365;28;20046;-75
2023/07/14 10:33:26;;;;;;;2.08;1.83;;;;;;;20.63;53.23;101264.44;5007160;28;20050;-79
2023/07/14 10:36:08;;;;;;;2.47;1.90;;;;;;;20.63;53.39;101274.94;5005522;28;20492;-77
2023/07/14 10:38:42;;;;;;;2.15;1.65;;;;;;;20.60;52.96;101267.09;5001748;28;20137;-77
2023/07/14 10:41:12;;;;;;;1.85;1.65;;;;;;;20.59;53.26;101273.25;4992319;28;20053;-76
2023/07/14 10:43:47;;;;;;;1.88;1.52;;;;;;;20.58;53.51;101274.09;5006688;28;20464;-77
2023/07/14 10:46:21;;;;;;;2.83;1.92;;;;;;;20.56;53.48;101281.13;5009096;28;20049;-77
2023/07/14 10:48:54;;;;;;;2.50;1.90;;;;;;;20.54;53.57;101280.22;5002312;28;20624;-77
2023/07/14 10:51:34;;;;;;;2.58;1.33;;;;;;;20.47;53.51;101278.47;5004287;28;20418;-75
2023/07/14 10:54:08;;;;;;;2.30;1.73;;;;;;;20.43;54.30;101282.00;5001498;28;20459;-76
2023/07/14 10:56:40;;;;;;;2.08;1.77;;;;;;;20.34;55.21;101282.91;4999154;28;20528;-77
2023/07/14 10:59:15;;;;;;;2.72;1.80;;;;;;;20.23;56.91;101280.31;4997426;28;20054;-75
2023/07/14 11:01:57;;;;;;;4.63;1.88;;;;;;;20.10;56.22;101275.94;5009284;28;20065;-77
2023/07/14 11:04:32;;;;;;;3.00;2.40;;;;;;;20.05;56.48;101280.34;5011193;28;20085;-78
2023/07/14 11:07:04;;;;;;;3.97;2.17;;;;;;;20.04;57.00;101284.72;4993874;28;20042;-77
2023/07/14 11:09:33;;;;;;;2.22;2.00;;;;;;;20.01;57.03;101276.81;5005097;28;20057;-77
2023/07/14 11:12:18;;;;;;;4.15;2.30;;;;;;;19.95;57.01;101284.72;4996548;28;20515;-76
2023/07/14 11:14:54;;;;;;;3.33;2.17;;;;;;;19.91;57.55;101274.22;5002256;28;20088;-76
2023/07/14 11:17:29;;;;;;;2.78;1.92;;;;;;;19.88;58.30;101283.84;4995954;28;20106;-75
2023/07/14 11:20:15;;;;;;;3.28;2.05;;;;;;;19.84;58.36;101282.09;4993464;28;20042;-75
2023/07/14 11:23:03;;;;;;;3.03;2.15;;;;;;;19.78;58.64;101281.22;5003796;28;20046;-76
2023/07/14 11:25:39;;;;;;;2.67;2.00;;;;;;;19.69;59.41;101287.34;5003275;28;20491;-77
2023/07/14 11:28:31;;;;;;;2.88;2.35;;;;;;;19.59;59.66;101278.56;5004670;28;20065;-76
2023/07/14 11:31:03;;;;;;;2.03;1.83;;;;;;;19.52;60.80;101279.44;5006727;28;20056;-77
2023/07/14 11:33:38;;;;;;;;;;;;;;;19.49;61.24;101287.28;5014377;28;20064;-76
2023/07/14 11:36:13;;;;;;;2.95;1.80;;;;;;;19.48;60.16;101277.66;4999678;28;19922;-78
2023/07/14 11:38:58;;;;;;;2.17;1.83;;;;;;;19.49;59.81;101276.78;4997037;28;20100;-76
2023/07/14 11:41:28;;;;;;;2.60;1.85;;;;;;;19.52;59.44;101281.19;4995612;28;20051;-76
2023/07/14 11:43:58;;;;;;;2.38;1.92;;;;;;;19.52;59.01;101289.06;5004841;28;20050;-75
2023/07/14 11:46:27;;;;;;;3.60;2.25;;;;;;;19.52;59.28;101281.19;5009787;28;20041;-75
2023/07/14 11:49:05;;;;;;;1.95;1.65;;;;;;;19.52;58.33;101278.56;5006061;28;20076;-76